Aviation Digital Data Service (ADDS)

Output produced by METARs form (0635 UTC 27 March 2017)
found at http://www.aviationweather.gov/adds/metars/
 
KTCC 270533Z 2706/2806 05010KT P6SM SCT030 SCT250 
     FM271500 17010KT P6SM SCT250 
     FM272000 20015G25KT P6SM SCT080 SCT120
       
KTCL 270529Z 2706/2806 20004KT P6SM SKC 
     FM270800 18004KT 6SM BR OVC012 
     TEMPO 2711/2714 4SM BR BKN005 
     FM271700 19010G15KT P6SM BKN050 
     FM272000 20010G18KT P6SM VCTS BKN050CB
       
TAF KTCM 270501Z 2705/2811 20009KT 9999 VCSH BKN015 OVC030 610407 QNH2979INS 
     BECMG 2706/2707 20009KT 9000 -SHRA BKN020 OVC030 610307 QNH2985INS 
     BECMG 2715/2716 21012G18KT 9000 -SHRA OVC030 610307 QNH3002INS 
     BECMG 2801/2802 21009KT 9999 NSW BKN030 QNH3003INS 
     BECMG 2808/2809 21009KT 9000 -RA OVC015 620307 QNH3001INS TX10/2723Z TN06/2714Z
       
KTCS 270540Z 2706/2806 31007KT P6SM FEW250 
     FM271200 VRB04KT P6SM FEW200 
     FM271600 17009KT P6SM FEW200 
     FM272100 21013KT P6SM SCT250 
     FM280300 26014KT P6SM SCT250
       
KTEB 270541Z 2706/2806 07004KT 2SM -DZ OVC006 
     FM270900 07004KT 1SM -RADZ BR OVC004 
     FM271300 14004KT 4SM -RA BR OVC006 
     FM271600 18005KT 5SM -RA BR OVC015 
     FM271900 22006KT P6SM BKN030 
     FM272100 22006KT P6SM BKN050 
     FM280300 19003KT 6SM -DZ BR OVC025
       
KTEX 270539Z 2706/2806 14005KT P6SM SCT200 
     FM271700 18008KT P6SM VCSH BKN110 
     FM272200 16008G18KT P6SM -SHRASN BKN050 
     FM280000 19007KT P6SM -SHRASN BKN025 
     FM280200 VRB04KT 4SM -SHSN BKN020
       
TAF KTIK 270100Z 2701/2807 18009KT 9999 OVC030 QNH2966INS 
     TEMPO 2701/2702 17035G50KT 4800 TSRAGR OVC020CB 
     BECMG 2705/2706 31006KT 4800 BR OVC010 QNH2975INS 
     BECMG 2708/2709 30012G18KT 9999 NSW OVC005 QNH2978INS 
     BECMG 2714/2715 33015G20KT 9999 BKN010 QNH2982INS 
     BECMG 2717/2718 34012KT 9999 FEW030 QNH2985INS 
     BECMG 2723/2724 02006KT 9999 FEW030 SCT150 QNH2990INS TX21/2701Z TN11/2709Z
       
KTIX 270539Z 2706/2806 VRB02KT P6SM FEW040 
     FM271400 09007KT P6SM SCT040 SCT250 
     FM280000 VRB02KT P6SM SKC AMD NOT SKED TIL 271100
       
KTLH 270541Z 2706/2806 00000KT P6SM FEW040 
     FM270700 00000KT 3SM BR SCT004 
     FM270900 00000KT 1/2SM FG BKN001 
     FM271500 18007KT P6SM SCT050 BKN250
       
KTMB 270520Z 2706/2806 VRB02KT P6SM SCT250 
     FM271400 08010KT P6SM SCT040 SCT250 
     FM280200 07003KT P6SM FEW030 SCT250
       
KTOI 270614Z 2706/2806 15003KT 4SM BR BKN003 
     TEMPO 2710/2713 00000KT 1SM BR OVC002 
     FM271500 17005KT P6SM BKN015 
     FM271700 19010KT P6SM SCT050 BKN250
       
KTOL 270540Z 2706/2806 23005KT P6SM SCT008 BKN040 
     FM271000 24005KT 5SM BR OVC008 
     FM271500 24005KT P6SM BKN015 
     FM271700 24007KT P6SM BKN050 
     FM272300 VRB03KT P6SM OVC100 
     FM280400 04003KT 5SM -RA BR OVC012
       
KTOP 270625Z 2706/2806 03006KT 6SM -RA BR OVC009 
     TEMPO 2709/2712 4SM RA SCT009 OVC013 
     FM271600 36009KT P6SM OVC015 
     FM272200 01007KT P6SM BKN035
       
KTPA 270531Z 2706/2806 12005KT P6SM FEW050 
     FM271600 23007KT P6SM SCT035 
     FM272000 28008KT P6SM SCT050 
     FM280000 30006KT P6SM SCT060 
     FM280300 05005KT P6SM FEW060
       
KTPH 270520Z 2706/2806 VRB06KT P6SM FEW070 
     FM271400 35018G33KT P6SM VCSH SCT070 
     FM271800 33032G47KT P6SM VCSH FEW060
       
KTRI 270530Z 2706/2806 VRB03KT P6SM BKN060 
     FM271800 20008KT P6SM BKN050 
     FM272200 22006KT P6SM VCTS SCT050CB BKN150 
     FM280100 VRB03KT P6SM VCSH SCT050 BKN200
       
KTRK 270602Z 2706/2806 21006KT 4SM -SHRASN BKN018 OVC025 
     FM271200 VRB04KT P6SM SCT020 BKN035 
     FM271600 VRB05KT P6SM VCSH SCT020 BKN040 
     FM272000 31011KT P6SM VCSH SCT025 BKN035 
     FM280300 31005KT P6SM SCT040 BKN060
       
KTRM 270520Z 2706/2806 33010G20KT P6SM FEW150 
     FM280100 33020G35KT 3SM BLDU FEW005
       
KTTD 270520Z 2706/2806 21005KT P6SM -SHRA SCT025 BKN050 
     TEMPO 2712/2716 5SM SHRA BR BKN025 OVC050
       
KTTN 270523Z 2706/2806 09007KT 2SM BR OVC003 
     TEMPO 2707/2710 4SM -SHRA BR SCT003 OVC008 
     FM271000 VRB04KT 4SM -SHRA BR OVC008 
     FM271600 24003KT 5SM BR VCSH BKN020 OVC050 
     FM272200 24006KT P6SM BKN050 
     FM280500 VRB02KT 3SM BR BKN100
       
KTUL 270520Z 2706/2806 35012KT P6SM VCTS SCT050CB BKN100 
     FM270800 35008KT P6SM VCSH BKN015 
     FM271000 33009KT P6SM BKN015 
     FM271900 34010KT P6SM BKN025 BKN035 
     FM272200 01006KT P6SM BKN035
       
KTUP 270530Z 2706/2806 18003KT P6SM BKN250 
     FM271500 19011G18KT P6SM BKN035 
     FM271700 21013G25KT 6SM SHRA VCTS SCT025CB OVC050 
     FM280200 22010KT 5SM SHRA VCTS SCT025CB OVC050
       
KTUS 270520Z 2706/2806 20005KT P6SM FEW250 
     FM270800 15006KT P6SM SCT250 
     FM272000 27013G23KT P6SM FEW120 SCT200 
     FM280300 27011KT P6SM FEW200
       
KTVC 270527Z 2706/2806 00000KT 1SM -SHRA BR OVC005 
     FM271300 00000KT 1SM BR OVC003 
     FM271500 VRB03KT P6SM OVC008 
     FM271800 VRB03KT P6SM OVC012 
     FM280300 36005KT P6SM BKN008
       
KTVL 270603Z 2706/2806 19008G16KT 4SM -SHRASN SCT015 BKN020 OVC040 
     FM271300 19006KT P6SM SCT020 BKN035 
     FM271600 18010KT P6SM VCSH SCT025 BKN035 
     FM280300 VRB04KT P6SM SCT040 BKN060
       
KTWF 270520Z 2706/2806 12010KT P6SM OVC080 
     FM271400 25014KT 6SM -RA BR OVC040 
     FM272100 27020G30KT P6SM BKN080
       
KTXK 270522Z 2706/2806 17010KT P6SM VCTS BKN030CB 
     TEMPO 2706/2708 18015G25KT 3SM -TSRA BKN025CB 
     FM271300 22013KT 4SM BR VCSH BKN015 
     FM271900 25012G20KT P6SM BKN035 
     FM280100 VRB03KT P6SM SCT250
       
KTYR 270522Z 2706/2806 18015G23KT P6SM VCSH BKN050 
     FM270800 18014KT P6SM OVC015 
     FM271900 26007KT P6SM OVC035 
     FM280100 VRB03KT P6SM BKN050
       
KTYS 270530Z 2706/2806 22006KT P6SM BKN070 BKN250 
     FM271500 22008G16KT P6SM SCT040 BKN250 
     FM271900 22012G19KT P6SM VCTS SCT060CB SCT100 BKN150 
     FM280100 21006KT P6SM VCTS SCT040CB BKN150